createdAt,value
2018-04-26T00:01:52.775Z,13.00
2018-04-26T00:06:56.044Z,12.90
2018-04-26T00:11:59.283Z,13.40
2018-04-26T00:17:03.316Z,11.50
2018-04-26T00:22:06.588Z,11.40
2018-04-26T00:27:09.856Z,12.10
2018-04-26T00:32:13.119Z,12.10
2018-04-26T00:37:16.380Z,12.10
2018-04-26T00:42:19.843Z,12.10
2018-04-26T00:47:23.102Z,11.80
2018-04-26T00:52:26.365Z,12.20
2018-04-26T00:57:30.387Z,11.80
2018-04-26T01:02:33.667Z,11.80
2018-04-26T01:07:37.915Z,11.70
2018-04-26T01:12:41.172Z,11.80
2018-04-26T01:17:44.444Z,11.70
2018-04-26T01:22:47.716Z,11.70
2018-04-26T01:27:50.975Z,10.90
2018-04-26T01:32:54.988Z,11.20
2018-04-26T01:37:58.242Z,11.20
2018-04-26T01:43:01.516Z,12.00
2018-04-26T01:48:04.789Z,11.70
2018-04-26T01:53:08.059Z,11.20
2018-04-26T01:58:11.335Z,11.70
2018-04-26T02:03:15.467Z,11.60
2018-04-26T02:08:19.500Z,12.20
2018-04-26T02:13:22.773Z,12.20
2018-04-26T02:18:26.029Z,12.00
2018-04-26T02:23:29.297Z,12.20
2018-04-26T02:28:33.326Z,12.00
2018-04-26T02:33:36.590Z,11.70
2018-04-26T02:38:41.504Z,11.70
2018-04-26T02:43:44.815Z,11.70
2018-04-26T02:48:48.833Z,11.80
2018-04-26T02:53:52.859Z,11.90
2018-04-26T02:58:56.104Z,11.90
2018-04-26T03:03:59.356Z,11.80
2018-04-26T03:09:03.377Z,10.80
2018-04-26T03:14:06.623Z,10.80
2018-04-26T03:19:09.864Z,10.80
2018-04-26T03:24:13.121Z,10.40
2018-04-26T03:29:16.374Z,11.20
2018-04-26T03:34:19.622Z,11.50
2018-04-26T03:39:23.635Z,10.60
2018-04-26T03:44:27.786Z,10.80
2018-04-26T03:49:31.035Z,10.80
2018-04-26T03:54:34.283Z,10.60
2018-04-26T03:59:49.351Z,11.10
2018-04-26T04:05:04.487Z,10.80
2018-04-26T04:10:07.751Z,11.50
2018-04-26T04:15:11.008Z,10.80
2018-04-26T04:20:14.263Z,10.80
2018-04-26T04:25:17.516Z,11.10
2018-04-26T04:30:20.774Z,11.80
2018-04-26T04:35:24.886Z,11.20
2018-04-26T04:40:28.118Z,11.00
2018-04-26T04:45:31.397Z,11.00
2018-04-26T04:50:34.682Z,10.60
2018-04-26T04:55:37.932Z,11.00
2018-04-26T05:00:42.093Z,10.50
2018-04-26T05:05:45.335Z,10.80
2018-04-26T05:10:48.587Z,11.50
2018-04-26T05:15:51.832Z,11.60
2018-04-26T05:20:55.180Z,11.60
2018-04-26T05:25:58.412Z,11.60
2018-04-26T05:31:01.660Z,11.10
2018-04-26T05:36:04.909Z,10.50
2018-04-26T05:41:08.163Z,10.70
2018-04-26T05:46:11.435Z,11.30
2018-04-26T05:51:14.686Z,10.50
2018-04-26T05:56:17.940Z,10.40
2018-04-26T06:01:23.038Z,11.00
2018-04-26T06:06:28.864Z,10.90
2018-04-26T06:11:32.088Z,10.80
2018-04-26T06:16:36.228Z,10.80
2018-04-26T06:21:39.475Z,11.00
2018-04-26T06:26:42.714Z,10.70
2018-04-26T06:31:46.491Z,11.10
2018-04-26T06:36:49.837Z,11.90
2018-04-26T06:41:53.014Z,12.20
2018-04-26T06:46:56.327Z,12.40
2018-04-26T06:52:00.343Z,13.40
2018-04-26T06:57:03.586Z,13.40
2018-04-26T07:02:06.843Z,13.30
2018-04-26T07:07:10.854Z,14.30
2018-04-26T07:12:14.117Z,14.30
2018-04-26T07:17:17.355Z,13.50
2018-04-26T07:22:20.612Z,14.30
2018-04-26T07:27:23.866Z,14.50
2018-04-26T07:32:27.119Z,15.00
2018-04-26T07:37:30.379Z,15.20
2018-04-26T07:42:33.631Z,15.00
2018-04-26T07:47:36.898Z,15.10
2018-04-26T07:52:40.151Z,14.50
2018-04-26T07:57:43.409Z,14.30
2018-04-26T08:02:46.683Z,14.50
2018-04-26T08:07:49.944Z,15.50
2018-04-26T08:12:53.248Z,15.90
2018-04-26T08:17:56.499Z,15.30
2018-04-26T08:22:59.747Z,15.90
2018-04-26T08:28:03.021Z,16.60
2018-04-26T08:33:06.259Z,17.10
2018-04-26T08:38:09.520Z,17.00
2018-04-26T08:43:12.767Z,17.50
2018-04-26T08:48:16.093Z,17.80
2018-04-26T08:53:19.351Z,18.40
2018-04-26T08:58:22.642Z,17.70
2018-04-26T09:03:25.897Z,17.20
2018-04-26T09:08:29.159Z,16.80
2018-04-26T09:13:33.173Z,17.30
2018-04-26T09:18:36.417Z,17.20
2018-04-26T09:23:39.667Z,16.30
2018-04-26T09:28:42.928Z,16.30
2018-04-26T09:33:46.179Z,16.90
2018-04-26T09:38:49.538Z,15.90
2018-04-26T09:43:52.690Z,15.70
2018-04-26T09:48:55.964Z,17.10
2018-04-26T09:53:59.216Z,18.40
2018-04-26T09:59:02.476Z,18.20
2018-04-26T10:04:11.468Z,18.80
2018-04-26T10:09:14.719Z,18.00
2018-04-26T10:14:17.989Z,17.80
2018-04-26T10:19:21.232Z,16.90
2018-04-26T10:24:25.264Z,17.50
2018-04-26T10:29:28.523Z,14.50
2018-04-26T10:34:31.770Z,17.50
2018-04-26T10:39:35.787Z,17.00
2018-04-26T10:44:39.053Z,16.90
2018-04-26T10:49:42.371Z,17.80
2018-04-26T10:54:45.623Z,17.70
2018-04-26T10:59:49.648Z,16.60
2018-04-26T11:04:52.910Z,16.50
2018-04-26T11:09:57.043Z,17.40
2018-04-26T11:15:00.369Z,17.90
2018-04-26T11:20:04.380Z,17.70
2018-04-26T11:25:07.632Z,18.10
2018-04-26T11:30:13.601Z,19.60
2018-04-26T11:35:22.008Z,20.60
2018-04-26T11:40:25.255Z,22.10
2018-04-26T11:45:28.513Z,19.70
2018-04-26T11:50:32.548Z,19.80
2018-04-26T11:55:35.815Z,19.70
2018-04-26T12:00:39.092Z,19.00
2018-04-26T12:05:42.376Z,18.60
2018-04-26T12:10:45.692Z,17.60
2018-04-26T12:15:49.703Z,19.40
2018-04-26T12:20:52.964Z,19.30
2018-04-26T12:25:57.055Z,18.30
2018-04-26T12:31:01.069Z,18.00
2018-04-26T12:36:04.355Z,17.90
2018-04-26T12:41:07.628Z,17.90
2018-04-26T12:46:10.883Z,19.60
2018-04-26T12:51:14.197Z,21.20
2018-04-26T12:56:17.452Z,23.20
2018-04-26T13:01:20.719Z,20.40
2018-04-26T13:06:23.984Z,18.40
2018-04-26T13:11:27.236Z,18.40
2018-04-26T13:16:30.483Z,17.30
2018-04-26T13:21:33.735Z,15.60
2018-04-26T13:26:36.979Z,15.10
2018-04-26T13:31:40.235Z,15.80
2018-04-26T13:36:43.491Z,17.20
2018-04-26T13:41:46.731Z,19.30
2018-04-26T13:46:49.988Z,20.60
2018-04-26T13:51:54.018Z,19.90
2018-04-26T13:56:57.267Z,19.90
2018-04-26T14:02:00.522Z,19.40
2018-04-26T14:07:04.563Z,18.80
2018-04-26T14:12:08.588Z,18.00
2018-04-26T14:17:12.612Z,17.10
2018-04-26T14:22:15.852Z,17.00
2018-04-26T14:27:20.121Z,16.00
2018-04-26T14:32:23.375Z,16.90
2018-04-26T14:37:26.668Z,18.10
2018-04-26T14:42:30.631Z,18.10
2018-04-26T14:47:33.890Z,18.00
2018-04-26T14:52:37.171Z,19.20
2018-04-26T15:05:48.968Z,16.10
2018-04-26T15:10:52.313Z,16.00
2018-04-26T15:15:55.573Z,16.60
2018-04-26T15:20:58.832Z,16.90
2018-04-26T15:26:02.096Z,15.10
2018-04-26T15:31:28.531Z,15.10
2018-04-26T15:36:31.822Z,14.20
2018-04-26T15:41:35.084Z,14.20
2018-04-26T15:46:38.963Z,16.10
2018-04-26T15:51:42.208Z,15.60
2018-04-26T15:56:57.433Z,15.50
2018-04-26T16:02:32.135Z,16.40
2018-04-26T16:07:53.601Z,16.00
2018-04-26T16:13:29.956Z,15.70
2018-04-26T16:18:45.999Z,18.50
2018-04-26T16:24:04.028Z,18.50
2018-04-26T16:29:24.977Z,19.00
2018-04-26T16:34:49.760Z,17.40
2018-04-26T16:39:52.999Z,16.40
2018-04-26T16:44:56.260Z,16.10
2018-04-26T16:49:59.510Z,16.20
2018-04-26T16:55:02.791Z,16.30
2018-04-26T17:00:06.214Z,16.60
2018-04-26T17:05:10.280Z,16.10
2018-04-26T17:10:13.526Z,16.10
2018-04-26T17:15:19.513Z,16.40
2018-04-26T17:20:22.764Z,16.40
2018-04-26T17:25:26.018Z,16.50
2018-04-26T17:30:29.282Z,16.20
2018-04-26T17:35:32.543Z,15.60
2018-04-26T17:40:35.822Z,15.80
2018-04-26T17:45:39.105Z,16.00
2018-04-26T17:50:42.384Z,16.20
2018-04-26T17:55:45.652Z,16.20
2018-04-26T18:00:48.913Z,15.90
2018-04-26T18:05:52.195Z,16.20
2018-04-26T18:10:55.468Z,16.20
2018-04-26T18:15:58.729Z,19.40
2018-04-26T18:21:02.003Z,15.10
2018-04-26T18:26:05.276Z,15.20
2018-04-26T18:31:09.312Z,13.70
2018-04-26T18:36:13.780Z,13.60
2018-04-26T18:41:17.804Z,13.40
2018-04-26T18:46:21.091Z,13.30
2018-04-26T18:51:24.429Z,14.20
2018-04-26T18:56:27.642Z,13.30
2018-04-26T19:01:30.928Z,12.80
2018-04-26T19:06:34.176Z,13.40
2018-04-26T19:11:37.426Z,13.10
2018-04-26T19:16:40.715Z,13.30
2018-04-26T19:21:43.972Z,12.20
2018-04-26T19:26:48.050Z,11.80
2018-04-26T19:31:51.284Z,11.70
2018-04-26T19:36:54.558Z,11.60
2018-04-26T19:41:57.815Z,11.30
2018-04-26T19:47:01.108Z,11.30
2018-04-26T19:52:04.359Z,8.40
2018-04-26T19:57:07.628Z,10.80
2018-04-26T20:02:10.964Z,10.70
2018-04-26T20:07:20.482Z,10.40
2018-04-26T20:12:24.555Z,10.40
2018-04-26T20:17:27.836Z,10.30
2018-04-26T20:22:31.168Z,10.20
2018-04-26T20:27:39.912Z,10.40
2018-04-26T20:32:43.173Z,10.80
2018-04-26T20:37:46.440Z,10.70
2018-04-26T20:42:49.717Z,10.20
2018-04-26T20:47:53.005Z,10.20
2018-04-26T20:52:56.232Z,10.30
2018-04-26T20:57:59.521Z,11.50
2018-04-26T21:03:03.053Z,13.00
2018-04-26T21:08:06.315Z,12.80
2018-04-26T21:13:09.580Z,11.40
2018-04-26T21:18:12.843Z,10.40
2018-04-26T21:23:16.096Z,9.70
2018-04-26T21:28:20.147Z,10.20
2018-04-26T21:33:23.400Z,10.10
2018-04-26T21:38:26.655Z,9.60
2018-04-26T21:43:29.907Z,10.40
2018-04-26T21:48:33.479Z,9.60
2018-04-26T21:53:42.416Z,9.20
2018-04-26T21:58:52.412Z,9.10
2018-04-26T22:04:12.547Z,9.20
2018-04-26T22:09:15.867Z,10.40
2018-04-26T22:14:31.971Z,9.70
2018-04-26T22:19:35.820Z,9.70
2018-04-26T22:24:39.851Z,9.40
2018-04-26T22:29:43.860Z,9.00
2018-04-26T22:34:47.227Z,8.90
2018-04-26T22:39:50.484Z,8.60
2018-04-26T22:44:53.739Z,8.60
2018-04-26T22:49:56.993Z,9.20
2018-04-26T22:55:01.029Z,8.70
2018-04-26T23:00:05.054Z,8.60
2018-04-26T23:05:08.320Z,8.50
2018-04-26T23:10:11.589Z,8.30
2018-04-26T23:15:14.841Z,8.20
2018-04-26T23:20:18.180Z,8.10
2018-04-26T23:25:21.438Z,8.20
2018-04-26T23:30:24.686Z,8.30
2018-04-26T23:35:28.716Z,8.60
2018-04-26T23:40:31.969Z,8.90
2018-04-26T23:45:35.211Z,10.70
2018-04-26T23:50:38.481Z,9.70
2018-04-26T23:55:41.775Z,8.20
